Time;durP1;ratioP1;P1;durP2;ratioP2;P2;SDS_P1;SDS_P2;PMS_P1;PMS_P2;Temp;Humidity;BMP_temperature;BMP_pressure;BME280_temperature;BME280_humidity;BME280_pressure;Samples;Min_cycle;Max_cycle;Signal;HPM_P1;HPM_P2
2021/08/22 00:09:08;;;;;;;6.72;5.00;;;19.20;99.90;;;;;;6698563;88;20223;-74
2021/08/22 00:19:08;;;;;;;9.02;5.62;;;19.20;99.90;;;;;;6698894;88;20223;-77
2021/08/22 00:29:09;;;;;;;8.25;5.10;;;18.90;99.90;;;;;;6697500;88;20187;-76
2021/08/22 00:39:09;;;;;;;8.07;6.03;;;19.10;99.90;;;;;;6695976;88;20230;-77
2021/08/22 00:49:11;;;;;;;9.32;6.55;;;19.00;99.90;;;;;;6695594;88;20603;-76
2021/08/22 00:59:13;;;;;;;8.10;5.68;;;18.90;99.90;;;;;;6693661;88;20178;-75
2021/08/22 01:09:19;;;;;;;10.60;7.10;;;18.80;99.90;;;;;;6697580;88;20663;-76
2021/08/22 01:19:40;;;;;;;9.65;6.93;;;18.80;99.90;;;;;;6698196;88;20213;-75
2021/08/22 01:29:58;;;;;;;11.90;6.85;;;18.80;99.90;;;;;;6696524;88;20300;-76
2021/08/22 01:39:59;;;;;;;11.18;6.32;;;18.70;99.90;;;;;;6704407;88;20297;-76
2021/08/22 01:50:00;;;;;;;10.23;6.32;;;18.40;99.90;;;;;;6699540;88;20199;-76
2021/08/22 02:00:00;;;;;;;9.35;6.85;;;18.40;99.90;;;;;;6698504;88;20195;-74
2021/08/22 02:10:06;;;;;;;11.38;6.53;;;18.30;99.90;;;;;;6696217;88;20720;-76
2021/08/22 02:20:07;;;;;;;9.52;5.28;;;18.10;99.90;;;;;;6704061;88;20209;-74
2021/08/22 02:30:09;;;;;;;7.90;4.65;;;18.10;99.90;;;;;;6703544;88;20306;-76
2021/08/22 02:40:09;;;;;;;7.55;3.95;;;18.00;99.90;;;;;;6695220;88;20245;-76
2021/08/22 02:50:10;;;;;;;6.97;4.35;;;17.90;99.90;;;;;;6693104;88;20311;-76
2021/08/22 03:00:11;;;;;;;8.77;3.97;;;17.90;99.90;;;;;;6686932;88;20300;-76
2021/08/22 03:10:12;;;;;;;7.87;4.37;;;17.90;99.90;;;;;;6692680;88;20229;-75
2021/08/22 03:20:14;;;;;;;7.85;4.30;;;17.80;99.90;;;;;;6696274;88;20307;-76
2021/08/22 03:30:14;;;;;;;8.32;4.35;;;17.90;99.90;;;;;;6692446;88;20212;-76
2021/08/22 03:40:15;;;;;;;10.30;4.32;;;17.90;99.90;;;;;;6697597;88;20210;-76
2021/08/22 03:50:16;;;;;;;7.32;4.55;;;17.80;99.90;;;;;;6702560;88;20751;-76
2021/08/22 04:00:17;;;;;;;6.75;4.78;;;17.60;99.90;;;;;;6699373;88;20226;-75
2021/08/22 04:10:17;;;;;;;6.90;4.62;;;17.40;99.90;;;;;;6698599;88;20194;-76
2021/08/22 04:20:18;;;;;;;8.38;4.32;;;17.50;99.90;;;;;;6698160;88;20309;-76
2021/08/22 04:30:19;;;;;;;9.40;4.80;;;17.40;99.90;;;;;;6696730;88;20811;-76
2021/08/22 04:40:19;;;;;;;6.87;4.87;;;17.40;99.90;;;;;;6697254;88;20505;-75
2021/08/22 04:50:20;;;;;;;8.48;5.20;;;17.40;99.90;;;;;;6698778;88;20508;-76
2021/08/22 05:00:20;;;;;;;7.03;4.82;;;17.30;99.90;;;;;;6698621;88;21091;-74
2021/08/22 05:10:21;;;;;;;9.18;5.22;;;17.50;99.90;;;;;;6689558;88;20186;-76
2021/08/22 05:20:21;;;;;;;6.55;4.70;;;17.40;99.90;;;;;;6693535;88;20191;-76
2021/08/22 05:30:22;;;;;;;5.93;4.43;;;17.50;99.90;;;;;;6694705;88;20796;-76
2021/08/22 05:40:23;;;;;;;7.85;4.00;;;17.50;99.90;;;;;;6695677;88;20330;-76
2021/08/22 05:50:24;;;;;;;5.03;3.50;;;17.50;99.90;;;;;;6695186;88;20381;-76
2021/08/22 06:00:24;;;;;;;5.83;3.67;;;17.70;99.90;;;;;;6695263;88;20202;-76
2021/08/22 06:10:25;;;;;;;5.87;3.70;;;17.80;99.90;;;;;;6694658;88;20540;-76
2021/08/22 06:20:25;;;;;;;6.55;3.17;;;18.30;99.90;;;;;;6691366;88;20314;-76
2021/08/22 06:30:26;;;;;;;7.15;3.20;;;18.80;99.90;;;;;;6695147;88;20218;-76
2021/08/22 06:40:26;;;;;;;5.60;3.53;;;18.90;99.90;;;;;;6689123;88;20187;-76
2021/08/22 06:50:27;;;;;;;6.45;3.35;;;19.00;99.90;;;;;;6700163;88;20239;-76
2021/08/22 07:00:28;;;;;;;4.65;3.55;;;19.00;99.90;;;;;;6689439;88;20694;-76
2021/08/22 07:10:28;;;;;;;4.45;3.00;;;19.60;99.90;;;;;;6697532;88;20190;-76
2021/08/22 07:20:29;;;;;;;5.15;3.12;;;19.30;99.90;;;;;;6693382;88;20266;-76
2021/08/22 07:30:30;;;;;;;5.45;2.90;;;19.40;99.90;;;;;;6683592;88;20240;-76
2021/08/22 07:40:30;;;;;;;5.03;3.40;;;19.30;99.90;;;;;;6686624;88;20564;-76
2021/08/22 07:50:31;;;;;;;6.00;3.28;;;19.20;99.90;;;;;;6693784;88;20178;-75
2021/08/22 08:00:31;;;;;;;4.50;3.25;;;19.30;99.90;;;;;;6698212;88;20194;-76
2021/08/22 08:10:32;;;;;;;6.35;3.60;;;19.60;99.90;;;;;;6683552;88;20675;-77
2021/08/22 08:20:33;;;;;;;6.82;3.95;;;19.80;99.90;;;;;;6688249;88;20780;-76
2021/08/22 08:30:34;;;;;;;5.37;3.85;;;19.90;99.90;;;;;;6687098;88;20196;-76
2021/08/22 08:40:34;;;;;;;5.80;3.65;;;20.40;99.90;;;;;;6692966;88;20242;-77
2021/08/22 08:50:41;;;;;;;12.05;4.15;;;21.00;99.90;;;;;;6689343;88;20215;-78
2021/08/22 09:00:43;;;;;;;7.53;3.80;;;19.00;99.90;;;;;;6693968;88;20349;-78
2021/08/22 09:10:59;;;;;;;6.53;3.00;;;17.90;99.90;;;;;;6690105;88;20254;-78
2021/08/22 09:21:18;;;;;;;5.87;3.50;;;18.30;99.90;;;;;;6685302;88;20184;-76
2021/08/22 09:31:43;;;;;;;5.32;2.90;;;18.70;99.90;;;;;;6687295;88;20195;-77
2021/08/22 09:42:09;;;;;;;3.22;2.45;;;19.20;99.90;;;;;;6689127;88;20212;-76
2021/08/22 09:52:37;;;;;;;3.70;2.40;;;20.10;99.90;;;;;;6692134;88;20210;-76
2021/08/22 10:03:05;;;;;;;3.42;2.35;;;20.70;99.90;;;;;;6686723;88;20573;-76
2021/08/22 10:13:06;;;;;;;3.55;2.47;;;21.20;99.90;;;;;;6695230;88;20700;-76
2021/08/22 10:23:41;;;;;;;7.87;3.72;;;21.70;99.90;;;;;;6688564;88;20298;-76
2021/08/22 10:34:12;;;;;;;3.42;2.50;;;21.40;99.90;;;;;;6690376;88;20687;-76
2021/08/22 10:44:34;;;;;;;4.60;3.05;;;21.70;99.90;;;;;;6692058;88;20203;-76
2021/08/22 10:54:35;;;;;;;5.80;3.17;;;22.60;99.90;;;;;;6694161;88;20240;-76
2021/08/22 11:14:44;;;;;;;3.57;2.10;;;22.90;99.90;;;;;;6704508;88;20192;-78
2021/08/22 11:24:52;;;;;;;4.40;2.17;;;22.60;99.90;;;;;;6701410;88;20198;-78
2021/08/22 11:34:53;;;;;;;5.62;2.78;;;22.50;99.90;;;;;;6701745;88;20561;-78
2021/08/22 11:45:09;;;;;;;4.68;2.40;;;23.20;99.90;;;;;;6697935;88;20367;-79
2021/08/22 11:55:11;;;;;;;3.72;2.00;;;22.50;99.90;;;;;;6703432;88;20700;-77
2021/08/22 12:05:24;;;;;;;3.95;2.08;;;23.80;99.90;;;;;;6700942;88;20280;-77
2021/08/22 12:15:36;;;;;;;5.10;2.10;;;24.70;99.90;;;;;;6701504;88;20175;-77
2021/08/22 12:25:40;;;;;;;5.28;2.00;;;25.70;99.90;;;;;;6699416;88;20249;-77
2021/08/22 12:35:41;;;;;;;4.30;2.40;;;26.40;99.90;;;;;;6693681;88;20844;-77
2021/08/22 12:45:41;;;;;;;5.65;2.50;;;25.60;99.90;;;;;;6694352;88;20195;-78
2021/08/22 12:55:42;;;;;;;5.20;2.62;;;24.70;99.90;;;;;;6707692;88;20219;-79
2021/08/22 13:05:42;;;;;;;3.72;2.40;;;24.20;99.90;;;;;;6693559;88;20199;-79
2021/08/22 13:15:43;;;;;;;3.62;1.60;;;24.30;99.90;;;;;;6716753;88;20292;-79
2021/08/22 13:25:44;;;;;;;3.62;1.70;;;24.10;99.90;;;;;;6715123;88;20190;-77
2021/08/22 13:35:44;;;;;;;3.22;1.75;;;23.60;99.90;;;;;;6718055;88;20553;-78
2021/08/22 13:45:45;;;;;;;4.97;2.03;;;23.30;99.90;;;;;;6716664;88;20232;-78
2021/08/22 13:55:45;;;;;;;4.53;1.90;;;23.10;99.90;;;;;;6715630;88;20236;-77
2021/08/22 14:05:46;;;;;;;3.67;1.80;;;23.30;99.90;;;;;;6724062;88;20231;-78
2021/08/22 14:15:47;;;;;;;4.32;1.70;;;23.00;99.90;;;;;;6715229;88;20530;-78
2021/08/22 14:25:47;;;;;;;4.17;1.67;;;22.50;99.90;;;;;;6718307;88;20218;-78
2021/08/22 14:35:48;;;;;;;4.00;1.60;;;22.60;99.90;;;;;;6720657;88;20193;-79
2021/08/22 14:45:49;;;;;;;2.30;1.50;;;22.40;99.90;;;;;;6716051;88;20257;-79
2021/08/22 14:55:49;;;;;;;4.23;1.60;;;22.60;99.90;;;;;;6711076;88;20614;-79
2021/08/22 15:05:50;;;;;;;2.15;1.40;;;23.20;99.90;;;;;;6725365;88;21117;-77
2021/08/22 15:15:51;;;;;;;4.07;1.48;;;24.40;99.90;;;;;;6723054;88;20240;-78
2021/08/22 15:25:51;;;;;;;3.08;1.27;;;23.80;99.90;;;;;;6724338;88;20260;-78
2021/08/22 15:35:52;;;;;;;3.05;1.62;;;24.30;99.90;;;;;;6707471;88;20340;-78
2021/08/22 15:45:52;;;;;;;2.80;1.42;;;24.40;99.90;;;;;;6707736;88;20232;-79
2021/08/22 15:55:53;;;;;;;2.80;1.40;;;24.60;99.90;;;;;;6706476;88;20197;-78
2021/08/22 16:05:54;;;;;;;3.53;1.80;;;23.60;99.90;;;;;;6704415;88;20245;-79
2021/08/22 16:15:54;;;;;;;5.55;1.67;;;23.30;99.90;;;;;;6705020;88;20199;-78
2021/08/22 16:25:55;;;;;;;3.55;1.50;;;22.80;99.90;;;;;;6706056;88;20223;-78
2021/08/22 16:35:55;;;;;;;2.97;1.40;;;22.20;99.90;;;;;;6703458;88;20198;-78
2021/08/22 16:45:57;;;;;;;2.47;1.58;;;21.70;99.90;;;;;;6716961;88;20533;-77
2021/08/22 16:55:58;;;;;;;3.35;1.37;;;21.60;99.90;;;;;;6716646;88;20223;-77
2021/08/22 17:05:58;;;;;;;3.67;1.30;;;21.70;99.90;;;;;;6720081;77;20395;-77
2021/08/22 17:15:59;;;;;;;3.20;1.47;;;22.20;99.90;;;;;;6694060;88;20925;-75
2021/08/22 17:26:00;;;;;;;3.17;1.30;;;21.90;99.90;;;;;;6689491;88;20221;-77
2021/08/22 17:36:00;;;;;;;2.85;1.50;;;21.30;99.90;;;;;;6693157;88;20212;-77
2021/08/22 17:46:01;;;;;;;4.85;2.42;;;21.00;99.90;;;;;;6687547;88;20195;-76
2021/08/22 17:56:01;;;;;;;4.80;2.83;;;19.80;99.90;;;;;;6688827;88;20228;-76
2021/08/22 18:06:02;;;;;;;3.62;2.37;;;19.40;99.90;;;;;;6687595;88;20180;-76
2021/08/22 18:16:03;;;;;;;4.93;2.12;;;19.40;99.90;;;;;;6684704;88;20191;-75
2021/08/22 18:26:03;;;;;;;3.10;2.30;;;19.00;99.90;;;;;;6685007;88;20245;-76
2021/08/22 18:36:04;;;;;;;3.85;2.60;;;18.90;99.90;;;;;;6685991;88;20653;-76
2021/08/22 18:46:05;;;;;;;4.40;2.85;;;18.80;99.90;;;;;;6687389;88;20600;-75
2021/08/22 18:56:06;;;;;;;5.22;2.72;;;18.90;99.90;;;;;;6681387;88;20187;-76
2021/08/22 19:06:06;;;;;;;4.28;2.60;;;18.80;99.90;;;;;;6687251;88;20783;-76
2021/08/22 19:16:07;;;;;;;4.43;3.07;;;18.70;99.90;;;;;;6692877;88;20721;-78
2021/08/22 19:26:08;;;;;;;4.75;3.10;;;18.70;99.90;;;;;;6695417;88;20991;-76
2021/08/22 19:36:08;;;;;;;5.40;3.20;;;18.60;99.90;;;;;;6698136;88;20802;-75
2021/08/22 19:46:09;;;;;;;5.00;3.20;;;18.60;99.90;;;;;;6703197;88;20203;-75
2021/08/22 19:56:14;;;;;;;6.57;3.45;;;18.40;99.90;;;;;;6695153;88;20201;-74
2021/08/22 20:06:15;;;;;;;5.43;3.28;;;18.40;99.90;;;;;;6693612;88;20336;-76
2021/08/22 20:16:16;;;;;;;4.93;3.40;;;18.30;99.90;;;;;;6691448;88;20225;-76
2021/08/22 20:26:17;;;;;;;7.07;3.12;;;18.20;99.90;;;;;;6684026;88;20739;-75
2021/08/22 20:36:18;;;;;;;5.95;3.50;;;17.90;99.90;;;;;;6688939;88;20355;-75
2021/08/22 20:46:19;;;;;;;4.72;3.37;;;17.80;99.90;;;;;;6684384;88;20644;-75
2021/08/22 20:56:22;;;;;;;8.95;4.05;;;17.70;99.90;;;;;;6686788;88;20315;-75
2021/08/22 21:06:22;;;;;;;6.03;4.00;;;17.60;99.90;;;;;;6686985;88;20614;-76
2021/08/22 21:16:23;;;;;;;6.35;4.10;;;17.60;99.90;;;;;;6688365;88;20213;-76
2021/08/22 21:26:23;;;;;;;5.25;3.75;;;17.50;99.90;;;;;;6690720;88;20589;-75
2021/08/22 21:36:24;;;;;;;5.25;3.95;;;17.50;99.90;;;;;;6698475;88;20578;-75
2021/08/22 21:46:24;;;;;;;6.93;3.95;;;17.30;99.90;;;;;;6689420;88;20284;-74
2021/08/22 21:56:27;;;;;;;5.60;4.35;;;17.10;99.90;;;;;;6691327;88;20210;-75
2021/08/22 22:06:27;;;;;;;6.25;4.10;;;17.40;99.90;;;;;;6688535;88;20232;-75
2021/08/22 22:16:28;;;;;;;7.55;4.75;;;17.30;99.90;;;;;;6691970;88;20181;-73
2021/08/22 22:26:29;;;;;;;7.10;4.40;;;17.40;99.90;;;;;;6692039;88;20186;-74
2021/08/22 22:36:29;;;;;;;6.03;3.90;;;17.50;99.90;;;;;;6685777;88;20279;-74
2021/08/22 22:46:30;;;;;;;5.72;4.12;;;17.50;99.90;;;;;;6685975;88;20573;-75
2021/08/22 22:56:30;;;;;;;8.02;4.30;;;17.50;99.90;;;;;;6691377;88;20258;-74
2021/08/22 23:06:31;;;;;;;6.82;3.85;;;17.60;99.90;;;;;;6687058;88;20188;-76
2021/08/22 23:16:31;;;;;;;8.27;4.25;;;17.50;99.90;;;;;;6692721;88;20378;-75
2021/08/22 23:26:32;;;;;;;7.47;4.40;;;17.50;99.90;;;;;;6691972;88;20715;-76
2021/08/22 23:36:32;;;;;;;5.60;3.92;;;17.20;99.90;;;;;;6693600;88;20217;-76
2021/08/22 23:46:33;;;;;;;5.60;3.75;;;17.20;99.90;;;;;;6689255;88;20198;-74
2021/08/22 23:56:34;;;;;;;8.15;3.80;;;17.20;99.90;;;;;;6692070;88;20210;-75
